createdAt,value
2022-09-02T00:00:07.663Z,85920.56
2022-09-02T00:02:36.114Z,85909.53
2022-09-02T00:05:03.675Z,85912.00
2022-09-02T00:07:31.791Z,85934.53
2022-09-02T00:10:00.589Z,85907.88
2022-09-02T00:12:28.362Z,85926.97
2022-09-02T00:14:55.665Z,85924.94
2022-09-02T00:17:23.585Z,85911.81
2022-09-02T00:19:54.250Z,85904.38
2022-09-02T00:22:24.442Z,85892.78
2022-09-02T00:24:51.872Z,85927.53
2022-09-02T00:27:20.153Z,85892.19
2022-09-02T00:29:47.619Z,85904.31
2022-09-02T00:32:15.485Z,85901.50
2022-09-02T00:34:42.894Z,85927.53
2022-09-02T00:37:11.128Z,85854.22
2022-09-02T00:39:38.527Z,85909.72
2022-09-02T00:42:07.282Z,85919.88
2022-09-02T00:44:34.798Z,85918.81
2022-09-02T00:47:02.630Z,85877.41
2022-09-02T00:49:33.861Z,85883.53
2022-09-02T00:52:30.083Z,85919.50
2022-09-02T00:55:01.426Z,85877.75
2022-09-02T00:57:34.726Z,85926.47
2022-09-02T01:00:25.061Z,85929.59
2022-09-02T01:03:05.856Z,85886.72
2022-09-02T01:05:41.855Z,85880.72
2022-09-02T01:08:20.235Z,85924.47
2022-09-02T01:10:49.814Z,85918.13
2022-09-02T01:13:20.985Z,85907.91
2022-09-02T01:15:55.467Z,85913.06
2022-09-02T01:18:29.698Z,85885.94
2022-09-02T01:20:59.819Z,85883.00
2022-09-02T01:23:29.322Z,85899.44
2022-09-02T01:26:00.779Z,85912.44
2022-09-02T01:28:28.407Z,85894.66
2022-09-02T01:30:57.012Z,85881.03
2022-09-02T01:33:26.188Z,85914.56
2022-09-02T01:35:56.911Z,85908.97
2022-09-02T01:38:25.867Z,85899.09
2022-09-02T01:40:53.666Z,85921.44
2022-09-02T01:43:26.788Z,85887.66
2022-09-02T01:45:56.909Z,85901.81
2022-09-02T01:48:27.853Z,85916.81
2022-09-02T01:51:03.907Z,85918.72
2022-09-02T01:53:32.546Z,85896.09
2022-09-02T01:56:00.500Z,85905.38
2022-09-02T01:58:32.232Z,85917.41
2022-09-02T02:01:00.046Z,85891.22
2022-09-02T02:03:27.918Z,85907.38
2022-09-02T02:05:58.250Z,85885.88
2022-09-02T02:08:25.733Z,85913.25
2022-09-02T02:10:53.891Z,85907.34
2022-09-02T02:13:23.613Z,85912.53
2022-09-02T02:15:51.603Z,85884.97
2022-09-02T02:18:19.088Z,85878.88
2022-09-02T02:20:48.496Z,85906.19
2022-09-02T02:23:15.626Z,85864.34
2022-09-02T02:25:43.836Z,85879.88
2022-09-02T02:28:11.501Z,85881.31
2022-09-02T02:30:39.881Z,85868.38
2022-09-02T02:33:09.496Z,85899.78
2022-09-02T02:35:37.306Z,85894.38
2022-09-02T02:38:04.971Z,85905.38
2022-09-02T02:40:33.277Z,85901.13
2022-09-02T02:43:00.843Z,85886.97
2022-09-02T02:45:29.655Z,85896.22
2022-09-02T02:47:57.158Z,85903.72
2022-09-02T02:50:26.783Z,85878.50
2022-09-02T02:52:55.030Z,85799.84
2022-09-02T02:55:26.177Z,85894.59
2022-09-02T02:57:54.022Z,85858.97
2022-09-02T03:00:31.359Z,85892.06
2022-09-02T03:03:05.318Z,85882.88
2022-09-02T03:05:36.064Z,85903.03
2022-09-02T03:08:06.601Z,85877.16
2022-09-02T03:10:35.692Z,85879.31
2022-09-02T03:13:03.577Z,85869.13
2022-09-02T03:15:32.072Z,85740.66
2022-09-02T03:17:59.465Z,85865.81
2022-09-02T03:20:28.107Z,85904.28
2022-09-02T03:23:00.474Z,85861.59
2022-09-02T03:25:35.379Z,85886.13
2022-09-02T03:28:12.746Z,85882.19
2022-09-02T03:30:42.564Z,85897.31
2022-09-02T03:33:10.431Z,85896.72
2022-09-02T03:35:43.162Z,85890.50
2022-09-02T03:38:12.773Z,85891.31
2022-09-02T03:40:42.756Z,85894.75
2022-09-02T03:43:11.441Z,85896.16
2022-09-02T03:45:42.047Z,85860.81
2022-09-02T03:48:14.493Z,85856.56
2022-09-02T03:50:47.294Z,85893.94
2022-09-02T03:53:20.540Z,85892.34
2022-09-02T03:55:55.199Z,85906.06
2022-09-02T03:58:26.407Z,85873.34
2022-09-02T04:00:56.064Z,85903.47
2022-09-02T04:03:25.723Z,85904.28
2022-09-02T04:05:53.851Z,85915.97
2022-09-02T04:08:24.441Z,85911.75
2022-09-02T04:10:56.431Z,85896.25
2022-09-02T04:13:24.269Z,85903.47
2022-09-02T04:15:52.196Z,85876.22
2022-09-02T04:18:22.722Z,85925.84
2022-09-02T04:20:52.293Z,85924.19
2022-09-02T04:23:20.998Z,85929.09
2022-09-02T04:25:49.012Z,85913.00
2022-09-02T04:28:18.362Z,85897.00
2022-09-02T04:30:49.575Z,85904.09
2022-09-02T04:33:18.143Z,85919.03
2022-09-02T04:35:51.941Z,85871.81
2022-09-02T04:38:21.086Z,85898.34
2022-09-02T04:40:48.726Z,85888.06
2022-09-02T04:43:19.323Z,85890.94
2022-09-02T04:45:48.286Z,85919.69
2022-09-02T04:48:23.367Z,85863.72
2022-09-02T04:50:51.030Z,85921.00
2022-09-02T04:53:21.134Z,85899.13
2022-09-02T04:55:48.638Z,85886.91
2022-09-02T04:58:16.833Z,85922.22
2022-09-02T05:00:48.987Z,85890.72
2022-09-02T05:03:20.242Z,85918.88
2022-09-02T05:05:59.506Z,85897.41
2022-09-02T05:08:28.568Z,85930.72
2022-09-02T05:10:56.702Z,85922.06
2022-09-02T05:13:25.147Z,85902.91
2022-09-02T05:15:54.843Z,85930.59
2022-09-02T05:18:23.815Z,85915.66
2022-09-02T05:20:52.447Z,85941.44
2022-09-02T05:23:20.686Z,85941.44
2022-09-02T05:25:48.787Z,85943.38
2022-09-02T05:28:18.507Z,85919.13
2022-09-02T05:30:47.334Z,85907.53
2022-09-02T05:33:16.059Z,85900.75
2022-09-02T05:35:49.801Z,85918.56
2022-09-02T05:38:18.819Z,85934.56
2022-09-02T05:40:48.094Z,85892.25
2022-09-02T05:43:15.530Z,85895.09
2022-09-02T05:45:43.656Z,85912.84
2022-09-02T05:48:30.267Z,85917.00
2022-09-02T05:50:58.747Z,85938.25
2022-09-02T05:53:28.060Z,85861.00
2022-09-02T05:55:55.615Z,85939.63
2022-09-02T05:58:24.968Z,85886.09
2022-09-02T06:00:55.362Z,85852.69
2022-09-02T06:03:23.146Z,85903.44
2022-09-02T06:06:04.394Z,85942.28
2022-09-02T06:08:37.161Z,85930.38
2022-09-02T06:11:10.213Z,85919.78
2022-09-02T06:13:40.744Z,85910.94
2022-09-02T06:16:10.861Z,85909.78
2022-09-02T06:18:43.147Z,85921.91
2022-09-02T06:21:12.341Z,85919.16
2022-09-02T06:23:45.079Z,85926.88
2022-09-02T06:26:15.355Z,85881.84
2022-09-02T06:28:43.433Z,85939.72
2022-09-02T06:31:17.753Z,85910.53
2022-09-02T06:33:47.629Z,85888.91
2022-09-02T06:36:19.642Z,85909.84
2022-09-02T06:38:49.961Z,85891.53
2022-09-02T06:41:23.774Z,85922.69
2022-09-02T06:43:53.616Z,85928.31
2022-09-02T06:46:28.340Z,85927.94
2022-09-02T06:48:58.845Z,85901.19
2022-09-02T06:51:37.213Z,85933.19
2022-09-02T06:54:07.108Z,85937.28
2022-09-02T06:56:37.907Z,85949.09
2022-09-02T06:59:07.245Z,85928.69
2022-09-02T07:01:50.229Z,85928.69
2022-09-02T07:04:39.079Z,85936.88
2022-09-02T07:07:09.976Z,85925.41
2022-09-02T07:09:43.111Z,85955.97
2022-09-02T07:12:18.946Z,85931.97
2022-09-02T07:14:52.257Z,85928.41
2022-09-02T07:17:25.739Z,85920.59
2022-09-02T07:20:00.456Z,85938.03
2022-09-02T07:22:32.530Z,85937.69
2022-09-02T07:25:02.345Z,85966.97
2022-09-02T07:27:31.943Z,85966.38
2022-09-02T07:30:00.186Z,85944.75
2022-09-02T07:32:28.090Z,85948.34
2022-09-02T07:34:55.476Z,85974.56
2022-09-02T07:37:23.309Z,85961.97
2022-09-02T07:39:53.911Z,85958.56
2022-09-02T07:42:22.524Z,85921.28
2022-09-02T07:44:49.940Z,85943.72
2022-09-02T07:47:18.984Z,85964.75
2022-09-02T07:52:37.790Z,85945.53
2022-09-02T07:55:06.201Z,85967.22
2022-09-02T07:57:34.858Z,85960.41
2022-09-02T08:00:03.727Z,85990.19
2022-09-02T08:02:42.124Z,85983.13
2022-09-02T08:05:14.343Z,85983.53
2022-09-02T08:07:42.512Z,85962.44
2022-09-02T08:10:13.731Z,85933.28
2022-09-02T08:12:43.085Z,85979.41
2022-09-02T08:15:12.785Z,85952.31
2022-09-02T08:17:41.851Z,85947.13
2022-09-02T08:20:12.806Z,85945.69
2022-09-02T08:22:41.978Z,85977.78
2022-09-02T08:25:10.207Z,85967.72
2022-09-02T08:27:39.041Z,85962.56
2022-09-02T08:30:11.599Z,85961.03
2022-09-02T08:32:49.354Z,85978.25
2022-09-02T08:35:17.263Z,85992.31
2022-09-02T08:37:44.992Z,85931.50
2022-09-02T08:40:21.149Z,85981.59
2022-09-02T08:42:57.135Z,85957.16
2022-09-02T08:45:28.163Z,85980.53
2022-09-02T08:48:01.935Z,85987.25
2022-09-02T08:50:32.213Z,85979.81
2022-09-02T08:53:22.049Z,85958.41
2022-09-02T08:55:56.587Z,85935.75
2022-09-02T08:58:28.971Z,85976.56
2022-09-02T09:01:26.281Z,85977.69
2022-09-02T09:04:16.163Z,85970.78
2022-09-02T09:07:06.116Z,85976.44
2022-09-02T09:10:09.743Z,85971.97
2022-09-02T09:12:40.863Z,85969.75
2022-09-02T09:15:22.132Z,85966.53
2022-09-02T09:18:04.491Z,85970.91
2022-09-02T09:20:43.834Z,85947.63
2022-09-02T09:23:34.216Z,85959.38
2022-09-02T09:26:07.641Z,85963.06
2022-09-02T09:28:45.423Z,85957.59
2022-09-02T09:31:22.342Z,85943.84
2022-09-02T09:34:04.491Z,85958.59
2022-09-02T09:36:41.242Z,85946.53
2022-09-02T09:39:30.000Z,85943.16
2022-09-02T09:42:03.335Z,85958.22
2022-09-02T09:44:31.125Z,85955.41
2022-09-02T09:47:07.100Z,85923.66
2022-09-02T09:49:35.447Z,85950.91
2022-09-02T09:52:03.319Z,85900.19
2022-09-02T09:54:31.936Z,85913.38
2022-09-02T09:57:24.789Z,85943.75
2022-09-02T10:00:26.085Z,85941.03
2022-09-02T10:02:57.389Z,85945.28
2022-09-02T10:05:34.498Z,85957.03
2022-09-02T10:08:09.892Z,85950.16
2022-09-02T10:11:01.514Z,85853.19
2022-09-02T10:13:32.316Z,85932.41
2022-09-02T10:16:22.484Z,85945.19
2022-09-02T10:19:04.594Z,85948.09
2022-09-02T10:21:32.753Z,85952.28
2022-09-02T10:24:15.389Z,85952.78
2022-09-02T10:26:49.627Z,85927.16
2022-09-02T10:29:46.721Z,85953.44
2022-09-02T10:33:05.754Z,85949.19
2022-09-02T10:35:39.244Z,85949.19
2022-09-02T10:38:09.907Z,85950.34
2022-09-02T10:40:52.625Z,85951.63
2022-09-02T10:43:48.243Z,85954.13
2022-09-02T10:46:26.435Z,85921.34
2022-09-02T10:49:06.619Z,85966.94
2022-09-02T10:51:46.403Z,85955.88
2022-09-02T10:54:29.850Z,85957.34
2022-09-02T10:57:06.513Z,85953.84
2022-09-02T10:59:58.153Z,85907.53
2022-09-02T11:02:31.409Z,85925.50
2022-09-02T11:05:07.267Z,85855.28
2022-09-02T11:07:40.953Z,85902.31
2022-09-02T11:10:17.339Z,85905.13
2022-09-02T11:13:01.386Z,85939.38
2022-09-02T11:16:13.372Z,85940.75
2022-09-02T11:18:59.796Z,85933.66
2022-09-02T11:21:48.657Z,85907.91
2022-09-02T11:24:28.294Z,85942.00
2022-09-02T11:27:25.773Z,85943.09
2022-09-02T11:30:17.447Z,85956.56
2022-09-02T11:32:50.813Z,85951.44
2022-09-02T11:35:27.521Z,85958.53
2022-09-02T11:38:11.351Z,85951.63
2022-09-02T11:44:10.346Z,85888.13
2022-09-02T11:46:57.337Z,85946.78
2022-09-02T11:49:55.954Z,85947.91
2022-09-02T11:53:01.377Z,85949.19
2022-09-02T11:55:42.670Z,85938.69
2022-09-02T11:58:40.731Z,85931.13
2022-09-02T12:01:28.414Z,85927.78
2022-09-02T12:07:13.503Z,85926.81
2022-09-02T12:09:48.736Z,85928.75
2022-09-02T12:12:59.614Z,85935.06
2022-09-02T12:15:28.154Z,85923.31
2022-09-02T12:17:55.631Z,85933.88
2022-09-02T12:20:41.944Z,85942.53
2022-09-02T12:23:31.219Z,85948.06
2022-09-02T12:26:07.484Z,85939.34
2022-09-02T12:28:35.135Z,85911.00
2022-09-02T12:31:05.618Z,85940.09
2022-09-02T12:33:41.151Z,85937.09
2022-09-02T12:36:11.124Z,85927.19
2022-09-02T12:38:42.596Z,85932.22
2022-09-02T12:41:20.490Z,85918.22
2022-09-02T12:44:33.241Z,85924.78
2022-09-02T12:47:13.684Z,85896.53
2022-09-02T12:50:21.728Z,85886.19
2022-09-02T12:53:08.226Z,85903.84
2022-09-02T12:55:37.611Z,85849.66
2022-09-02T12:58:17.049Z,85853.84
2022-09-02T13:01:04.444Z,85907.00
2022-09-02T13:03:52.173Z,85856.25
2022-09-02T13:06:32.056Z,85913.13
2022-09-02T13:09:23.822Z,85904.88
2022-09-02T13:12:06.828Z,85913.53
2022-09-02T13:14:51.186Z,85915.56
2022-09-02T13:17:43.814Z,85902.63
2022-09-02T13:20:44.559Z,85918.03
2022-09-02T13:23:44.625Z,85922.31
2022-09-02T13:26:58.818Z,85927.25
2022-09-02T13:30:04.018Z,85928.81
2022-09-02T13:32:33.372Z,85921.03
2022-09-02T13:35:08.395Z,85923.66
2022-09-02T13:37:45.475Z,85889.25
2022-09-02T13:40:14.846Z,85932.44
2022-09-02T13:42:51.659Z,85908.19
2022-09-02T13:45:26.192Z,85944.75
2022-09-02T13:48:11.312Z,85946.09
2022-09-02T13:50:43.725Z,85944.06
2022-09-02T13:56:10.665Z,85944.16
2022-09-02T13:58:46.424Z,85927.56
2022-09-02T14:01:38.425Z,85908.25
2022-09-02T14:04:15.747Z,85925.47
2022-09-02T14:06:50.938Z,85895.16
2022-09-02T14:09:25.983Z,85916.75
2022-09-02T14:11:55.398Z,85933.78
2022-09-02T14:14:27.274Z,85950.97
2022-09-02T14:17:23.071Z,85958.94
2022-09-02T14:20:16.786Z,85918.03
2022-09-02T14:22:52.929Z,85963.16
2022-09-02T14:25:24.232Z,85871.28
2022-09-02T14:27:58.494Z,85949.44
2022-09-02T14:30:41.922Z,85891.53
2022-09-02T14:33:26.930Z,85941.59
2022-09-02T14:36:05.867Z,85938.69
2022-09-02T14:38:36.740Z,85905.88
2022-09-02T14:41:12.286Z,85938.44
2022-09-02T14:43:55.615Z,85924.50
2022-09-02T14:46:31.684Z,85931.28
2022-09-02T14:49:06.363Z,85900.53
2022-09-02T14:51:39.585Z,85929.72
2022-09-02T14:54:08.655Z,85923.41
2022-09-02T14:56:47.592Z,85920.88
2022-09-02T14:59:15.717Z,85902.44
2022-09-02T15:01:49.233Z,85926.78
2022-09-02T15:04:19.171Z,85942.22
2022-09-02T15:06:49.515Z,85888.69
2022-09-02T15:09:18.016Z,85920.34
2022-09-02T15:11:51.998Z,85945.53
2022-09-02T15:14:22.844Z,85943.03
2022-09-02T15:16:55.064Z,85933.59
2022-09-02T15:19:23.319Z,85945.25
2022-09-02T15:21:51.091Z,85926.56
2022-09-02T15:24:19.703Z,85893.78
2022-09-02T15:26:47.079Z,85925.09
2022-09-02T15:29:15.416Z,85906.09
2022-09-02T15:31:42.916Z,85902.59
2022-09-02T15:34:11.194Z,85948.59
2022-09-02T15:36:39.115Z,85945.84
2022-09-02T15:39:08.082Z,85926.75
2022-09-02T15:41:36.508Z,85899.50
2022-09-02T15:44:09.909Z,85926.66
2022-09-02T15:46:38.571Z,85933.44
2022-09-02T15:49:12.356Z,85902.91
2022-09-02T15:51:44.943Z,85924.09
2022-09-02T15:54:16.477Z,85924.19
2022-09-02T15:56:46.982Z,85921.38
2022-09-02T15:59:18.528Z,85932.78
2022-09-02T16:01:48.582Z,85939.06
2022-09-02T16:04:18.276Z,85924.91
2022-09-02T16:06:49.310Z,85911.72
2022-09-02T16:09:18.928Z,85866.88
2022-09-02T16:11:58.710Z,85914.63
2022-09-02T16:14:26.882Z,85922.78
2022-09-02T16:16:58.155Z,85937.22
2022-09-02T16:19:30.283Z,85940.16
2022-09-02T16:22:01.405Z,85908.50
2022-09-02T16:24:29.796Z,85885.53
2022-09-02T16:26:57.380Z,85934.25
2022-09-02T16:29:28.257Z,85922.28
2022-09-02T16:32:14.222Z,85924.63
2022-09-02T16:34:42.571Z,85930.16
2022-09-02T16:37:10.027Z,85914.03
2022-09-02T16:39:38.074Z,85915.91
2022-09-02T16:42:06.514Z,85908.59
2022-09-02T16:44:36.422Z,85900.25
2022-09-02T16:47:04.137Z,85908.91
2022-09-02T16:49:32.351Z,85889.97
2022-09-02T16:52:02.007Z,85920.53
2022-09-02T16:54:32.466Z,85920.34
2022-09-02T16:57:02.311Z,85932.97
2022-09-02T16:59:32.081Z,85912.41
2022-09-02T17:01:59.654Z,85924.03
2022-09-02T17:04:27.772Z,85919.09
2022-09-02T17:06:57.334Z,85889.50
2022-09-02T17:09:24.751Z,85884.44
2022-09-02T17:11:54.139Z,85920.25
2022-09-02T17:14:24.433Z,85947.72
2022-09-02T17:16:53.073Z,85922.56
2022-09-02T17:19:22.177Z,85889.66
2022-09-02T17:21:55.018Z,85923.81
2022-09-02T17:24:25.534Z,85945.75
2022-09-02T17:26:56.402Z,85865.53
2022-09-02T17:32:19.433Z,85937.28
2022-09-02T17:34:49.834Z,85900.91
2022-09-02T17:37:18.529Z,85968.91
2022-09-02T17:39:47.983Z,85936.72
2022-09-02T17:42:16.716Z,85688.91
2022-09-02T17:44:44.588Z,85975.53
2022-09-02T17:47:16.049Z,85982.78
2022-09-02T17:49:44.807Z,85934.16
2022-09-02T17:52:15.568Z,85991.50
2022-09-02T17:54:44.052Z,85930.13
2022-09-02T17:57:41.957Z,85953.84
2022-09-02T18:00:16.617Z,85998.81
2022-09-02T18:03:13.069Z,86006.69
2022-09-02T18:06:15.835Z,86002.59
2022-09-02T18:08:55.569Z,86008.22
2022-09-02T18:11:24.569Z,85982.94
2022-09-02T18:14:01.107Z,86009.13
2022-09-02T18:16:41.726Z,86006.69
2022-09-02T18:19:19.675Z,86024.75
2022-09-02T18:22:08.081Z,86025.59
2022-09-02T18:24:47.642Z,86016.75
2022-09-02T18:27:37.606Z,86031.47
2022-09-02T18:30:26.240Z,85995.47
2022-09-02T18:33:21.083Z,86028.84
2022-09-02T18:35:55.725Z,86029.69
2022-09-02T18:38:49.187Z,86033.78
2022-09-02T18:41:49.540Z,86033.25
2022-09-02T18:44:29.490Z,86033.94
2022-09-02T18:47:05.287Z,86023.31
2022-09-02T18:49:37.450Z,86011.28
2022-09-02T18:52:10.598Z,85990.97
2022-09-02T18:54:49.264Z,85882.97
2022-09-02T18:57:17.249Z,85984.97
2022-09-02T19:00:02.264Z,86033.50
2022-09-02T19:02:55.006Z,86022.72
2022-09-02T19:05:28.342Z,86020.66
2022-09-02T19:08:24.553Z,86001.59
2022-09-02T19:11:06.571Z,86006.00
2022-09-02T19:13:56.121Z,85987.44
2022-09-02T19:16:30.389Z,86007.50
2022-09-02T19:18:59.036Z,85984.28
2022-09-02T19:21:41.228Z,86004.91
2022-09-02T19:24:12.840Z,86002.16
2022-09-02T19:26:44.490Z,86004.22
2022-09-02T19:29:15.996Z,85995.19
2022-09-02T19:31:46.961Z,85974.81
2022-09-02T19:34:16.516Z,85993.75
2022-09-02T19:36:47.084Z,85993.75
2022-09-02T19:39:15.361Z,85985.56
2022-09-02T19:41:43.023Z,85973.31
2022-09-02T19:44:12.768Z,85988.47
2022-09-02T19:47:24.758Z,86004.97
2022-09-02T19:49:29.836Z,85999.28
2022-09-02T19:51:57.807Z,85950.31
2022-09-02T19:54:26.783Z,85996.63
2022-09-02T19:56:54.061Z,85984.38
2022-09-02T19:59:22.180Z,85970.16
2022-09-02T20:01:50.367Z,85992.47
2022-09-02T20:04:19.263Z,85991.69
2022-09-02T20:06:46.825Z,85984.19
2022-09-02T20:09:15.960Z,85964.97
2022-09-02T20:11:44.442Z,85943.13
2022-09-02T20:14:12.514Z,85974.50
2022-09-02T20:16:39.954Z,85979.59
2022-09-02T20:19:11.841Z,85993.91
2022-09-02T20:21:45.224Z,85996.63
2022-09-02T20:24:20.078Z,85974.81
2022-09-02T20:26:56.508Z,86003.84
2022-09-02T20:29:30.644Z,85999.78
2022-09-02T20:32:14.311Z,86005.19
2022-09-02T20:34:56.663Z,86003.97
2022-09-02T20:37:51.988Z,86013.84
2022-09-02T20:40:48.876Z,86020.06
2022-09-02T20:43:47.443Z,85988.88
2022-09-02T20:46:36.098Z,86013.34
2022-09-02T20:49:10.276Z,86014.78
2022-09-02T20:51:50.821Z,86009.22
2022-09-02T20:54:54.273Z,86001.28
2022-09-02T20:57:45.519Z,86010.25
2022-09-02T21:00:17.039Z,86012.44
2022-09-02T21:02:58.394Z,85999.78
2022-09-02T21:05:35.757Z,85969.38
2022-09-02T21:08:09.305Z,86002.91
2022-09-02T21:10:48.366Z,86014.75
2022-09-02T21:13:30.250Z,86003.03
2022-09-02T21:16:09.757Z,85966.78
2022-09-02T21:19:10.909Z,86016.41
2022-09-02T21:21:53.163Z,86019.53
2022-09-02T21:24:34.132Z,85970.34
2022-09-02T21:27:45.865Z,85982.03
2022-09-02T21:30:20.782Z,85987.78
2022-09-02T21:33:00.303Z,86010.88
2022-09-02T21:35:47.373Z,86011.03
2022-09-02T21:38:20.155Z,86002.69
2022-09-02T21:41:06.881Z,85998.59
2022-09-02T21:44:05.495Z,85999.53
2022-09-02T21:47:12.675Z,86008.63
2022-09-02T21:49:56.733Z,86012.19
2022-09-02T21:52:49.101Z,86007.31
2022-09-02T21:55:44.731Z,86005.28
2022-09-02T21:58:26.529Z,85997.63
2022-09-02T22:01:01.741Z,85972.03
2022-09-02T22:04:04.637Z,85989.38
2022-09-02T22:06:42.501Z,85993.06
2022-09-02T22:09:17.360Z,86005.50
2022-09-02T22:11:54.452Z,86001.41
2022-09-02T22:14:46.432Z,86003.69
2022-09-02T22:17:55.597Z,86005.09
2022-09-02T22:20:32.725Z,85987.41
2022-09-02T22:23:23.961Z,86001.72
2022-09-02T22:25:56.748Z,86009.59
2022-09-02T22:28:43.254Z,85996.03
2022-09-02T22:31:16.399Z,85956.41
2022-09-02T22:33:55.693Z,86014.50
2022-09-02T22:37:02.905Z,86006.91
2022-09-02T22:39:53.955Z,85975.16
2022-09-02T22:42:34.325Z,86007.22
2022-09-02T22:45:28.602Z,85992.22
2022-09-02T22:48:30.318Z,85990.25
2022-09-02T22:51:22.154Z,85982.81
2022-09-02T22:53:53.699Z,86006.16
2022-09-02T22:56:48.807Z,85903.72
2022-09-02T22:59:26.239Z,86008.34
2022-09-02T23:02:09.258Z,85974.78
2022-09-02T23:04:54.422Z,86002.34
2022-09-02T23:07:24.579Z,85998.81
2022-09-02T23:09:57.173Z,85978.66
2022-09-02T23:12:51.084Z,86005.16
2022-09-02T23:15:37.174Z,85973.22
2022-09-02T23:18:13.543Z,86002.50
2022-09-02T23:21:00.954Z,86002.41
2022-09-02T23:23:38.834Z,86003.72
2022-09-02T23:26:40.494Z,86006.66
2022-09-02T23:29:18.355Z,85985.22
2022-09-02T23:32:24.304Z,86001.06
2022-09-02T23:35:11.466Z,85997.72
2022-09-02T23:37:55.751Z,85992.13
2022-09-02T23:40:27.301Z,85971.53
2022-09-02T23:42:59.876Z,85957.16
2022-09-02T23:45:30.466Z,85986.22
2022-09-02T23:48:23.514Z,85994.59
2022-09-02T23:51:16.555Z,85990.44
2022-09-02T23:54:08.536Z,85995.41
2022-09-02T23:57:15.334Z,86008.03
